Weather History for Hays, KS

Change the Weather History Date:

Saturday, March 9, 2013

  Actual Average Record
Temperature  
Mean Temperature 51 °F -  
Max Temperature 69 °F 47 °F 73 °F (2009)
Min Temperature 33 °F 23 °F 10 °F (1998)
Degree Days  
Heating Degree Days 14    
Growing Degree Days 1 (Base 50)    
Moisture  
Dew Point 44 °F    
Average Humidity 76    
Maximum Humidity 94    
Minimum Humidity 23    
Precipitation  
Precipitation 0.00 in - - ()
Sea Level Pressure  
Sea Level Pressure 29.60 in    
Wind  
Wind Speed 21 mph (SSW)    
Max Wind Speed 29 mph    
Max Gust Speed 37 mph    
Visibility 10 miles    
Events      
Averages and records for this station are not official NWS values.
T = Trace of Precipitation, MM = Missing Value Source: NWS Daily Summary

Daily Weather History Graph

Daily Weather History Graph

Search for Another Location

Airport:

Trip Planner

Search our weather history database for the weather conditions in past years. The results will help you decide how hot, cold, wet, or windy it might be!

Date:

Astronomy

Mar. 09, 2013 Rise Set
Actual Time 6:57 AM CST 6:38 PM CST
Civil Twilight 6:30 AM CST 7:05 PM CST
Nautical Twilight 5:59 AM CST 7:35 PM CST
Astronomical Twilight 5:28 AM CST 8:06 PM CST
Moon 5:21 AM CST (3/9) 4:43 PM CST (3/9)
Length of Visible Light 12h 34m
Length of Day
11h 41m
Waning Crescent, 5% of the Moon is Illuminated
Mar 9
Waning Crescent
Mar 11
New
Mar 19
First Quarter
Mar 27
Full
Apr 2
Last Quarter

Hourly Weather History & Observations

Time (CST) Temp. Windchill Dew Point Humidity Pressure Visibility Wind Dir Wind Speed Gust Speed Precip Events Conditions
12:15 AM 53.6 °F - 51.8 °F 94% 29.74 in 4.0 mi South 24.2 mph 31.1 mph N/A   Overcast
12:35 AM 53.6 °F - 51.8 °F 94% 29.73 in 5.0 mi SSE 20.7 mph - N/A   Overcast
12:55 AM 53.6 °F - 51.8 °F 94% 29.72 in 7.0 mi South 18.4 mph 24.2 mph N/A   Mostly Cloudy
1:15 AM 53.6 °F - 51.8 °F 94% 29.71 in 10.0 mi South 15.0 mph - N/A   Mostly Cloudy
1:35 AM 53.6 °F - 51.8 °F 94% 29.72 in 10.0 mi South 18.4 mph - N/A   Overcast
1:55 AM 53.6 °F - 51.8 °F 94% 29.72 in 7.0 mi South 17.3 mph 24.2 mph N/A   Overcast
2:15 AM 51.8 °F - 50.0 °F 94% 29.70 in 5.0 mi South 16.1 mph - N/A   Overcast
2:35 AM 53.6 °F - 51.8 °F 94% 29.69 in 7.0 mi South 17.3 mph - N/A   Mostly Cloudy
2:55 AM 53.6 °F - 51.8 °F 94% 29.68 in 10.0 mi South 18.4 mph 25.3 mph N/A   Overcast
3:15 AM 53.6 °F - 51.8 °F 94% 29.66 in 10.0 mi South 20.7 mph 26.5 mph N/A   Overcast
3:35 AM 55.4 °F - 51.8 °F 88% 29.66 in 10.0 mi South 18.4 mph - N/A   Overcast
3:55 AM 55.4 °F - 53.6 °F 94% 29.66 in 10.0 mi South 17.3 mph - N/A   Overcast
4:15 AM 55.4 °F - 53.6 °F 94% 29.64 in 10.0 mi South 19.6 mph - N/A   Overcast
4:35 AM 55.4 °F - 53.6 °F 94% 29.62 in 10.0 mi South 19.6 mph - N/A   Overcast
4:55 AM 55.4 °F - 53.6 °F 94% 29.60 in 10.0 mi South 24.2 mph 29.9 mph N/A   Overcast
5:15 AM 55.4 °F - 53.6 °F 94% 29.59 in 10.0 mi South 26.5 mph 34.5 mph N/A   Mostly Cloudy
5:35 AM - - - N/A% 29.56 in 10.0 mi SSE 28.8 mph 35.7 mph N/A   Mostly Cloudy
5:55 AM 55.4 °F - 51.8 °F 88% 29.59 in 10.0 mi South 24.2 mph 32.2 mph N/A   Overcast
6:15 AM 53.6 °F - 51.8 °F 94% 29.60 in 10.0 mi South 19.6 mph 28.8 mph N/A   Mostly Cloudy
6:35 AM 53.6 °F - 51.8 °F 94% 29.60 in 10.0 mi South 18.4 mph 25.3 mph N/A   Partly Cloudy
6:55 AM 53.6 °F - 50.0 °F 88% 29.61 in 10.0 mi South 13.8 mph 19.6 mph N/A   Clear
7:15 AM 53.6 °F - 50.0 °F 88% 29.61 in 10.0 mi South 12.7 mph - N/A   Mostly Cloudy
7:35 AM 53.6 °F - 50.0 °F 88% 29.60 in 10.0 mi South 16.1 mph 21.9 mph N/A   Mostly Cloudy
7:55 AM 53.6 °F - 51.8 °F 94% 29.60 in 10.0 mi South 17.3 mph - N/A   Scattered Clouds
8:15 AM 53.6 °F - 51.8 °F 94% 29.60 in 10.0 mi South 18.4 mph 21.9 mph N/A   Scattered Clouds
8:35 AM 55.4 °F - 51.8 °F 88% 29.60 in 10.0 mi South 20.7 mph - N/A   Scattered Clouds
8:55 AM 55.4 °F - 51.8 °F 88% 29.61 in 10.0 mi South 16.1 mph 24.2 mph N/A   Partly Cloudy
9:15 AM 55.4 °F - 51.8 °F 88% 29.60 in 10.0 mi South 16.1 mph 25.3 mph N/A   Mostly Cloudy
9:35 AM 55.4 °F - 51.8 °F 88% 29.59 in 10.0 mi South 19.6 mph 24.2 mph N/A   Mostly Cloudy
9:55 AM 55.4 °F - 51.8 °F 88% 29.59 in 10.0 mi South 16.1 mph 23.0 mph N/A   Mostly Cloudy
10:15 AM 59.0 °F - 51.8 °F 77% 29.59 in 10.0 mi SSW 16.1 mph 19.6 mph N/A   Overcast
10:35 AM 60.8 °F - 53.6 °F 77% 29.58 in 8.0 mi SSW 13.8 mph 19.6 mph N/A   Overcast
10:55 AM 64.4 °F - 53.6 °F 68% 29.56 in 10.0 mi South 19.6 mph - N/A   Mostly Cloudy
11:15 AM 62.6 °F - 51.8 °F 68% 29.56 in 10.0 mi South 23.0 mph 27.6 mph N/A   Mostly Cloudy
11:35 AM 64.4 °F - 53.6 °F 68% 29.55 in 10.0 mi South 23.0 mph 28.8 mph N/A   Overcast
11:55 AM 64.4 °F - 53.6 °F 68% 29.54 in 10.0 mi South 21.9 mph 27.6 mph N/A   Mostly Cloudy
12:15 PM 64.4 °F - 51.8 °F 64% 29.54 in 10.0 mi South 23.0 mph 29.9 mph N/A   Partly Cloudy
12:35 PM 64.4 °F - 51.8 °F 64% 29.52 in 10.0 mi South 25.3 mph 28.8 mph N/A   Partly Cloudy
12:55 PM 66.2 °F - 50.0 °F 56% 29.51 in 10.0 mi South 26.5 mph 32.2 mph N/A   Clear
1:15 PM - - - N/A% 29.49 in 10.0 mi South 24.2 mph 34.5 mph N/A   Partly Cloudy
1:35 PM - - - N/A% 29.48 in 10.0 mi SSE 26.5 mph 32.2 mph N/A   Mostly Cloudy
1:55 PM 66.2 °F - 48.2 °F 52% 29.47 in 10.0 mi South 26.5 mph 32.2 mph N/A   Mostly Cloudy
2:15 PM - - - N/A% 29.45 in 10.0 mi South 26.5 mph 35.7 mph N/A   Scattered Clouds
2:35 PM 68.0 °F - 48.2 °F 49% 29.45 in 10.0 mi South 26.5 mph 31.1 mph N/A   Mostly Cloudy
2:55 PM 69.8 °F - 30.2 °F 23% 29.45 in 10.0 mi SW 24.2 mph 35.7 mph N/A   Mostly Cloudy
3:15 PM 69.8 °F - 30.2 °F 23% 29.46 in 10.0 mi SW 19.6 mph 36.8 mph N/A   Scattered Clouds
3:35 PM 69.8 °F - 32.0 °F 25% 29.45 in 10.0 mi SSW 23.0 mph 26.5 mph N/A   Mostly Cloudy
3:55 PM 69.8 °F - 32.0 °F 25% 29.45 in 10.0 mi SSW 26.5 mph 34.5 mph N/A   Mostly Cloudy
4:15 PM 69.8 °F - 39.2 °F 33% 29.46 in 10.0 mi NW 19.6 mph 28.8 mph N/A   Scattered Clouds
4:35 PM 64.4 °F - 42.8 °F 45% 29.47 in 10.0 mi NW 21.9 mph 26.5 mph N/A   Partly Cloudy
4:55 PM 62.6 °F - 42.8 °F 48% 29.48 in 10.0 mi NW 19.6 mph 24.2 mph N/A   Clear
5:15 PM 62.6 °F - 42.8 °F 48% 29.49 in 10.0 mi NNW 23.0 mph - N/A   Clear
5:35 PM 55.4 °F - 39.2 °F 54% 29.52 in 10.0 mi NNW 27.6 mph 33.4 mph N/A   Clear
6:15 PM 46.4 °F 37.4 °F 35.6 °F 66% 29.55 in 10.0 mi NNW 28.8 mph 34.5 mph N/A   Clear
6:35 PM 42.8 °F 32.9 °F 33.8 °F 70% 29.58 in 10.0 mi North 26.5 mph 35.7 mph N/A   Mostly Cloudy
6:55 PM 41.0 °F 31.6 °F 33.8 °F 76% 29.60 in 10.0 mi North 20.7 mph 33.4 mph N/A   Overcast
7:15 PM 39.2 °F 28.0 °F 32.0 °F 75% 29.61 in 10.0 mi North 26.5 mph 34.5 mph N/A   Overcast
7:35 PM 39.2 °F 29.0 °F 30.2 °F 70% 29.62 in 10.0 mi NNW 21.9 mph 28.8 mph N/A   Overcast
7:55 PM 37.4 °F 25.6 °F 30.2 °F 75% 29.64 in 10.0 mi NNW 26.5 mph 33.4 mph N/A   Overcast
8:15 PM 37.4 °F 25.6 °F 30.2 °F 75% 29.66 in 10.0 mi North 26.5 mph 29.9 mph N/A   Overcast
8:35 PM 35.6 °F 24.5 °F 30.2 °F 81% 29.66 in 10.0 mi North 20.7 mph 31.1 mph N/A   Overcast
8:55 PM 35.6 °F 24.2 °F 30.2 °F 81% 29.67 in 10.0 mi North 21.9 mph 29.9 mph N/A   Overcast
9:15 PM 35.6 °F 24.0 °F 30.2 °F 81% 29.69 in 10.0 mi North 23.0 mph 27.6 mph N/A   Overcast
9:35 PM 35.6 °F 24.8 °F 30.2 °F 81% 29.71 in 10.0 mi North 19.6 mph 28.8 mph N/A   Overcast
9:55 PM 35.6 °F 24.2 °F 30.2 °F 81% 29.72 in 10.0 mi North 21.9 mph 26.5 mph N/A   Overcast
10:15 PM 35.6 °F 24.2 °F 30.2 °F 81% 29.71 in 10.0 mi NNW 21.9 mph 28.8 mph N/A   Overcast
10:35 PM 35.6 °F 24.2 °F 28.4 °F 75% 29.71 in 10.0 mi NNW 21.9 mph 28.8 mph N/A   Overcast
10:55 PM 35.6 °F 24.2 °F 28.4 °F 75% 29.70 in 10.0 mi NNW 21.9 mph 32.2 mph N/A   Overcast
11:15 PM 33.8 °F 21.0 °F 28.4 °F 81% 29.72 in 10.0 mi North 25.3 mph 33.4 mph N/A   Overcast
11:35 PM 33.8 °F 22.5 °F 28.4 °F 81% 29.74 in 10.0 mi NNW 19.6 mph 24.2 mph N/A   Overcast
11:55 PM 33.8 °F 20.5 °F 26.6 °F 75% 29.72 in 10.0 mi NNW 27.6 mph 31.1 mph N/A   Overcast